Time;durP1;ratioP1;P1;durP2;ratioP2;P2;SDS_P1;SDS_P2;PMS_P1;PMS_P2;Temp;Humidity;BMP_temperature;BMP_pressure;BME280_temperature;BME280_humidity;BME280_pressure;Samples;Min_cycle;Max_cycle;Signal;HPM_P1;HPM_P2
2022/04/29 00:02:23;;;;;;;;;;;8.70;99.90;;;;;;5090552;28;20001;-71
2022/04/29 00:04:48;;;;;;;;;;;8.60;99.90;;;;;;5085573;28;20016;-70
2022/04/29 00:07:15;;;;;;;;;;;8.60;99.90;;;;;;5079728;28;20349;-72
2022/04/29 00:09:41;;;;;;;;;;;8.60;99.90;;;;;;5078174;28;19939;-71
2022/04/29 00:12:07;;;;;;;;;;;8.60;99.90;;;;;;5093957;28;19912;-72
2022/04/29 00:14:32;;;;;;;;;;;8.50;99.90;;;;;;5084867;28;19916;-73
2022/04/29 00:16:58;;;;;;;;;;;8.60;99.90;;;;;;5088077;28;19961;-71
2022/04/29 00:19:24;;;;;;;;;;;8.60;99.90;;;;;;5084040;28;19950;-71
2022/04/29 00:21:49;;;;;;;;;;;8.50;99.90;;;;;;5089703;28;19907;-71
2022/04/29 00:24:15;;;;;;;;;;;8.50;99.90;;;;;;5087165;28;19916;-71
2022/04/29 00:26:40;;;;;;;;;;;8.40;99.90;;;;;;5089422;28;20345;-71
2022/04/29 00:29:06;;;;;;;;;;;8.40;99.90;;;;;;5079194;28;20373;-72
2022/04/29 00:31:32;;;;;;;;;;;8.40;99.90;;;;;;5085588;28;19908;-71
2022/04/29 00:33:58;;;;;;;;;;;8.30;99.90;;;;;;5086954;28;19927;-70
2022/04/29 00:36:24;;;;;;;;;;;8.30;99.90;;;;;;5092967;28;20382;-70
2022/04/29 00:38:49;;;;;;;;;;;8.30;99.90;;;;;;5086970;28;19915;-70
2022/04/29 00:41:16;;;;;;;;;;;8.20;99.90;;;;;;5088486;28;19918;-71
2022/04/29 00:43:42;;;;;;;;;;;8.20;99.90;;;;;;5077584;28;19927;-71
2022/04/29 00:46:08;;;;;;;;;;;8.20;99.90;;;;;;5085163;28;19908;-71
2022/04/29 00:48:34;;;;;;;;;;;8.10;99.90;;;;;;5084600;28;20391;-71
2022/04/29 00:50:59;;;;;;;;;;;8.10;99.90;;;;;;5082712;28;19912;-70
2022/04/29 00:53:26;;;;;;;;;;;8.20;99.90;;;;;;5082985;28;19920;-70
2022/04/29 00:55:53;;;;;;;;;;;8.20;99.90;;;;;;5084887;28;19916;-70
2022/04/29 00:58:24;;;;;;;;;;;8.20;99.90;;;;;;5083337;28;19912;-70
2022/04/29 01:00:49;;;;;;;;;;;8.20;99.90;;;;;;5084554;28;19916;-70
2022/04/29 01:03:15;;;;;;;;;;;8.10;99.90;;;;;;5082068;28;19942;-70
2022/04/29 01:05:41;;;;;;;;;;;8.10;99.90;;;;;;5089919;28;19953;-71
2022/04/29 01:08:08;;;;;;;;;;;8.10;99.90;;;;;;5080215;28;19912;-71
2022/04/29 01:10:34;;;;;;;;;;;8.00;99.90;;;;;;5091381;28;19999;-71
2022/04/29 01:13:00;;;;;;;;;;;8.00;99.90;;;;;;5081432;28;19958;-71
2022/04/29 01:15:27;;;;;;;;;;;8.00;99.90;;;;;;5081251;28;19916;-71
2022/04/29 01:17:54;;;;;;;;;;;8.00;99.90;;;;;;5078031;28;19915;-71
2022/04/29 01:20:20;;;;;;;;;;;8.00;99.90;;;;;;5087582;28;19913;-71
2022/04/29 01:22:46;;;;;;;;;;;8.00;99.90;;;;;;5081064;28;19965;-70
2022/04/29 01:25:12;;;;;;;;;;;8.00;99.90;;;;;;5085925;28;19995;-71
2022/04/29 01:27:38;;;;;;;;;;;8.00;99.90;;;;;;5088526;28;20277;-71
2022/04/29 01:30:09;;;;;;;;;;;7.90;99.90;;;;;;5087672;28;19911;-70
2022/04/29 01:32:35;;;;;;;;;;;7.90;99.90;;;;;;5084824;28;20002;-70
2022/04/29 01:35:01;;;;;;;;;;;7.90;99.90;;;;;;5087472;28;20058;-69
2022/04/29 01:37:27;;;;;;;;;;;8.00;99.90;;;;;;5086824;28;19908;-70
2022/04/29 01:39:53;;;;;;;;;;;8.00;99.90;;;;;;5082520;28;19908;-70
2022/04/29 01:42:19;;;;;;;;;;;8.00;99.90;;;;;;5086149;28;19915;-70
2022/04/29 01:44:45;;;;;;;;;;;7.90;99.90;;;;;;5082863;28;20365;-70
2022/04/29 01:47:11;;;;;;;;;;;7.90;99.90;;;;;;5082682;28;19908;-70
2022/04/29 01:49:36;;;;;;;;;;;7.90;99.90;;;;;;5086306;28;19914;-71
2022/04/29 01:52:02;;;;;;;;;;;7.90;99.90;;;;;;5082397;28;19915;-70
2022/04/29 01:54:28;;;;;;;;;;;7.90;99.90;;;;;;5080780;28;19961;-70
2022/04/29 01:56:53;;;;;;;;;;;7.90;99.90;;;;;;5076945;28;19995;-71
2022/04/29 01:59:22;;;;;;;;;;;7.90;99.90;;;;;;5074179;28;20265;-70
2022/04/29 02:01:47;;;;;;;;;;;7.80;99.90;;;;;;5088622;28;20385;-71
2022/04/29 02:04:13;;;;;;;;;;;7.80;99.90;;;;;;5082080;28;19954;-70
2022/04/29 02:06:39;;;;;;;;;;;7.80;99.90;;;;;;5090364;28;19938;-70
2022/04/29 02:09:05;;;;;;;;;;;7.70;99.90;;;;;;5085256;28;19916;-70
2022/04/29 02:11:30;;;;;;;;;;;7.70;99.90;;;;;;5082558;28;19908;-69
2022/04/29 02:13:56;;;;;;;;;;;7.70;99.90;;;;;;5092776;28;19959;-71
2022/04/29 02:16:23;;;;;;;;;;;7.60;99.90;;;;;;5088703;28;20377;-70
2022/04/29 02:18:48;;;;;;;;;;;7.60;99.90;;;;;;5089453;28;19907;-71
2022/04/29 02:21:14;;;;;;;;;;;7.60;99.90;;;;;;5090942;28;19912;-71
2022/04/29 02:23:40;;;;;;;;;;;7.60;99.90;;;;;;5080407;28;19934;-71
2022/04/29 02:26:05;;;;;;;;;;;7.60;99.90;;;;;;5084840;28;20002;-70
2022/04/29 02:28:32;;;;;;;;;;;7.60;99.90;;;;;;5091234;28;19983;-70
2022/04/29 02:30:58;;;;;;;;;;;7.60;99.90;;;;;;5084688;28;19908;-70
2022/04/29 02:33:23;;;;;;;;;;;7.60;99.90;;;;;;5078847;28;19908;-70
2022/04/29 02:35:49;;;;;;;;;;;7.50;99.90;;;;;;5076167;28;19994;-70
2022/04/29 02:38:15;;;;;;;;;;;7.70;99.90;;;;;;5075181;28;19908;-70
2022/04/29 02:40:41;;;;;;;;;;;7.60;99.90;;;;;;5089684;28;20416;-70
2022/04/29 02:43:06;;;;;;;;;;;7.60;99.90;;;;;;5077533;28;19908;-70
2022/04/29 02:45:32;;;;;;;;;;;7.60;99.90;;;;;;5082769;28;20325;-69
2022/04/29 02:47:58;;;;;;;;;;;7.50;99.90;;;;;;5083899;28;19908;-71
2022/04/29 02:50:24;;;;;;;;;;;7.60;99.90;;;;;;5074683;28;20365;-71
2022/04/29 02:52:49;;;;;;;;;;;7.60;99.90;;;;;;5084410;28;20303;-72
2022/04/29 02:55:15;;;;;;;;;;;7.50;99.90;;;;;;5077248;28;19920;-71
2022/04/29 02:57:40;;;;;;;;;;;7.40;99.90;;;;;;5091777;28;19987;-71
2022/04/29 03:00:06;;;;;;;;;;;7.40;99.90;;;;;;5077101;28;20347;-72
2022/04/29 03:02:31;;;;;;;;;;;7.40;99.90;;;;;;5087919;28;19910;-70
2022/04/29 03:04:57;;;;;;;;;;;7.40;99.90;;;;;;5079134;28;19916;-72
2022/04/29 03:07:22;;;;;;;;;;;7.30;99.90;;;;;;5085218;28;20003;-70
2022/04/29 03:09:48;;;;;;;;;;;7.20;99.90;;;;;;5086086;28;19909;-71
2022/04/29 03:12:14;;;;;;;;;;;7.20;99.90;;;;;;5084270;28;19908;-71
2022/04/29 03:14:40;;;;;;;;;;;7.20;99.90;;;;;;5073607;28;19916;-70
2022/04/29 03:17:05;;;;;;;;;;;7.20;99.90;;;;;;5085134;28;19915;-70
2022/04/29 03:19:31;;;;;;;;;;;7.20;99.90;;;;;;5076663;28;20315;-70
2022/04/29 03:21:57;;;;;;;;;;;7.20;99.90;;;;;;5083696;28;19981;-70
2022/04/29 03:24:22;;;;;;;;;;;7.10;99.90;;;;;;5089750;28;19908;-69
2022/04/29 03:26:48;;;;;;;;;;;7.10;99.90;;;;;;5085825;28;19908;-70
2022/04/29 03:29:13;;;;;;;;;;;7.00;99.90;;;;;;5083459;28;19922;-70
2022/04/29 03:31:39;;;;;;;;;;;6.80;99.90;;;;;;5083051;28;19993;-70
2022/04/29 03:34:05;;;;;;;;;;;6.70;99.90;;;;;;5090642;28;20411;-70
2022/04/29 03:36:33;;;;;;;;;;;6.70;99.90;;;;;;5092708;28;19923;-70
2022/04/29 03:38:59;;;;;;;;;;;6.60;99.90;;;;;;5080179;28;19915;-71
2022/04/29 03:41:25;;;;;;;;;;;6.50;99.90;;;;;;5081787;28;19908;-70
2022/04/29 03:43:50;;;;;;;;;;;6.40;99.90;;;;;;5077478;28;20350;-69
2022/04/29 03:46:16;;;;;;;;;;;6.40;99.90;;;;;;5092306;28;19919;-70
2022/04/29 03:51:26;;;;;;;;;;;6.30;99.90;;;;;;5083961;28;19922;-70
2022/04/29 03:53:52;;;;;;;;;;;6.30;99.90;;;;;;5090901;28;20003;-70
2022/04/29 03:56:20;;;;;;;;;;;6.40;99.90;;;;;;5083541;28;19922;-70
2022/04/29 03:58:46;;;;;;;;;;;6.50;99.90;;;;;;5082244;28;19914;-70
2022/04/29 04:01:12;;;;;;;;;;;6.50;99.90;;;;;;5085798;28;19994;-70
2022/04/29 04:03:38;;;;;;;;;;;6.70;99.90;;;;;;5074726;28;19938;-70
2022/04/29 04:08:47;;;;;;;;;;;6.80;99.90;;;;;;5085048;28;19950;-71
2022/04/29 04:11:13;;;;;;;;;;;6.90;99.90;;;;;;5078687;28;19975;-71
2022/04/29 04:13:38;;;;;;;;;;;7.00;99.90;;;;;;5091365;28;19915;-70
2022/04/29 04:16:04;;;;;;;;;;;7.00;99.90;;;;;;5089011;28;20380;-71
2022/04/29 04:18:29;;;;;;;;;;;7.00;99.90;;;;;;5078035;28;19908;-69
2022/04/29 04:20:55;;;;;;;;;;;7.00;99.90;;;;;;5085303;28;19912;-71
2022/04/29 04:23:20;;;;;;;;;;;7.00;99.90;;;;;;5083239;28;19908;-70
2022/04/29 04:25:46;;;;;;;;;;;6.90;99.90;;;;;;5078181;28;20003;-71
2022/04/29 04:28:13;;;;;;;;;;;6.90;99.90;;;;;;5088118;28;19947;-71
2022/04/29 04:30:39;;;;;;;;;;;6.90;99.90;;;;;;5083005;28;20278;-71
2022/04/29 04:33:05;;;;;;;;;;;6.90;99.90;;;;;;5089228;28;20002;-71
2022/04/29 04:35:30;;;;;;;;;;;6.90;99.90;;;;;;5084949;28;20353;-70
2022/04/29 04:37:56;;;;;;;;;;;6.90;99.90;;;;;;5084498;28;19908;-70
2022/04/29 04:40:22;;;;;;;;;;;6.90;99.90;;;;;;5094822;28;19908;-72
2022/04/29 04:42:48;;;;;;;;;;;6.90;99.90;;;;;;5077152;28;20362;-70
2022/04/29 04:45:16;;;;;;;;;;;6.90;99.90;;;;;;5087532;28;19915;-70
2022/04/29 04:47:42;;;;;;;;;;;6.80;99.90;;;;;;5084168;28;20277;-70
2022/04/29 04:50:08;;;;;;;;;;;6.80;99.90;;;;;;5074256;28;19912;-70
2022/04/29 04:52:34;;;;;;;;;;;6.80;99.90;;;;;;5075705;28;19908;-70
2022/04/29 04:55:04;;;;;;;;;;;6.80;99.90;;;;;;5080110;28;19916;-70
2022/04/29 04:57:29;;;;;;;;;;;6.90;99.90;;;;;;5098757;28;20000;-70
2022/04/29 04:59:55;;;;;;;;;;;6.90;99.90;;;;;;5090867;28;19939;-71
2022/04/29 05:02:20;;;;;;;;;;;6.90;99.90;;;;;;5089546;28;20436;-71
2022/04/29 05:04:46;;;;;;;;;;;6.80;99.90;;;;;;5087397;28;19915;-72
2022/04/29 05:07:11;;;;;;;;;;;6.80;99.90;;;;;;5086165;28;19938;-70
2022/04/29 05:09:37;;;;;;;;;;;6.70;99.90;;;;;;5087348;28;19916;-70
2022/04/29 05:12:03;;;;;;;;;;;6.70;99.90;;;;;;5071763;28;20273;-70
2022/04/29 05:14:28;;;;;;;;;;;6.60;99.90;;;;;;5099335;28;20337;-71
2022/04/29 05:16:54;;;;;;;;;;;6.60;99.90;;;;;;5080131;28;20051;-70
2022/04/29 05:19:19;;;;;;;;;;;6.70;99.90;;;;;;5083398;28;19915;-71
2022/04/29 05:21:46;;;;;;;;;;;6.70;99.90;;;;;;5077210;28;19923;-71
2022/04/29 05:24:12;;;;;;;;;;;6.80;99.90;;;;;;5086500;28;20354;-69
2022/04/29 05:26:37;;;;;;;;;;;6.80;99.90;;;;;;5089835;28;20002;-71
2022/04/29 05:29:03;;;;;;;;;;;6.90;99.90;;;;;;5082574;28;19966;-70
2022/04/29 05:31:28;;;;;;;;;;;7.00;99.90;;;;;;5086810;28;19908;-70
2022/04/29 05:33:55;;;;;;;;;;;7.10;99.90;;;;;;5073955;28;20386;-70
2022/04/29 05:36:21;;;;;;;;;;;7.10;99.90;;;;;;5081357;28;19916;-71
2022/04/29 05:44:15;;;;;;;;;;;7.40;99.90;;;;;;5083893;28;19957;-71
2022/04/29 05:46:40;;;;;;;;;;;7.40;99.90;;;;;;5082631;28;19912;-71
2022/04/29 05:49:06;;;;;;;;;;;7.50;99.90;;;;;;5084543;28;20343;-70
2022/04/29 05:51:32;;;;;;;;;;;7.60;99.90;;;;;;5076782;28;20273;-71
2022/04/29 05:54:00;;;;;;;;;;;7.60;99.90;;;;;;5084952;28;19908;-71
2022/04/29 05:56:26;;;;;;;;;;;7.70;99.90;;;;;;5077180;28;19931;-71
2022/04/29 05:58:52;;;;;;;;;;;7.80;99.90;;;;;;5083774;28;19908;-70
2022/04/29 06:01:17;;;;;;;;;;;7.80;99.90;;;;;;5094548;28;19915;-70
2022/04/29 06:03:43;;;;;;;;;;;7.90;99.90;;;;;;5082440;28;19908;-70
2022/04/29 06:06:08;;;;;;;;;;;8.00;99.90;;;;;;5083543;28;19938;-71
2022/04/29 06:08:34;;;;;;;;;;;8.10;99.90;;;;;;5086020;28;20323;-71
2022/04/29 06:10:59;;;;;;;;;;;8.10;99.90;;;;;;5094741;28;20419;-72
2022/04/29 06:13:25;;;;;;;;;;;8.20;99.90;;;;;;5089146;28;19907;-71
2022/04/29 06:15:50;;;;;;;;;;;8.30;99.90;;;;;;5087648;28;19941;-71
2022/04/29 06:18:16;;;;;;;;;;;8.40;99.90;;;;;;5085059;28;19911;-70
2022/04/29 06:20:41;;;;;;;;;;;8.50;99.90;;;;;;5083220;28;20007;-70
2022/04/29 06:23:07;;;;;;;;;;;8.60;99.90;;;;;;5088737;28;20269;-71
2022/04/29 06:25:33;;;;;;;;;;;8.80;99.90;;;;;;5084753;28;19915;-71
2022/04/29 06:27:58;;;;;;;;;;;8.90;99.90;;;;;;5093223;28;20063;-70
2022/04/29 06:30:24;;;;;;;;;;;8.90;99.90;;;;;;5091575;28;19978;-70
2022/04/29 06:32:52;;;;;;;;;;;8.70;99.90;;;;;;5080768;28;19908;-70
2022/04/29 06:35:19;;;;;;;;;;;8.50;99.90;;;;;;5087030;28;19930;-70
2022/04/29 06:37:44;;;;;;;;;;;8.50;99.90;;;;;;5089513;28;19915;-72
2022/04/29 06:40:10;;;;;;;;;;;8.60;99.90;;;;;;5074334;28;19909;-71
2022/04/29 06:42:42;;;;;;;;;;;8.70;99.90;;;;;;5074829;28;20079;-70
2022/04/29 06:45:08;;;;;;;;;;;8.70;99.90;;;;;;5088088;28;19915;-70
2022/04/29 06:47:34;;;;;;;;;;;8.90;99.90;;;;;;5075079;28;20354;-70
2022/04/29 06:49:59;;;;;;;;;;;9.00;99.90;;;;;;5084214;28;19961;-71
2022/04/29 06:52:25;;;;;;;;;;;9.10;99.90;;;;;;5086123;28;19908;-71
2022/04/29 06:54:50;;;;;;;;;;;9.00;99.90;;;;;;5088050;28;19923;-71
2022/04/29 06:57:16;;;;;;;;;;;9.10;99.90;;;;;;5098167;28;19915;-71
2022/04/29 06:59:41;;;;;;;;;;;9.30;99.90;;;;;;5091721;28;19908;-70
2022/04/29 07:02:07;;;;;;;;;;;9.40;99.90;;;;;;5096965;28;19909;-69
2022/04/29 07:04:33;;;;;;;;;;;9.60;99.90;;;;;;5110972;28;19938;-69
2022/04/29 07:06:59;;;;;;;;;;;9.70;99.90;;;;;;5102878;28;19908;-70
2022/04/29 07:09:25;;;;;;;;;;;9.90;99.90;;;;;;5106176;28;20274;-71
2022/04/29 07:11:51;;;;;;;;;;;10.00;99.90;;;;;;5093515;28;19924;-70
2022/04/29 07:14:17;;;;;;;;;;;10.10;99.90;;;;;;5095155;28;19908;-70
2022/04/29 07:16:42;;;;;;;;;;;10.20;99.90;;;;;;5103569;28;19923;-69
2022/04/29 07:19:08;;;;;;;;;;;10.20;99.90;;;;;;5104866;28;19912;-69
2022/04/29 07:21:33;;;;;;;;;;;10.20;99.90;;;;;;5101652;28;20288;-72
2022/04/29 07:23:59;;;;;;;;;;;10.10;99.90;;;;;;5098489;28;20357;-70
2022/04/29 07:26:25;;;;;;;;;;;10.10;99.90;;;;;;5094718;28;19938;-70
2022/04/29 07:28:50;;;;;;;;;;;10.00;99.90;;;;;;5093644;28;19908;-69
2022/04/29 07:31:16;;;;;;;;;;;10.00;99.90;;;;;;5094374;28;19908;-70
2022/04/29 07:33:41;;;;;;;;;;;10.10;99.90;;;;;;5091493;28;20322;-70
2022/04/29 07:41:45;;;;;;;;;;;10.60;99.90;;;;;;5097813;28;19915;-70
2022/04/29 07:44:11;;;;;;;;;;;10.80;99.90;;;;;;5092729;28;20042;-70
2022/04/29 07:46:36;;;;;;;;;;;10.70;99.90;;;;;;5086803;28;19908;-70
2022/04/29 07:49:02;;;;;;;;;;;10.80;99.90;;;;;;5083358;28;19915;-70
2022/04/29 07:51:28;;;;;;;;;;;10.80;99.90;;;;;;5084041;28;19908;-70
2022/04/29 07:53:57;;;;;;;;;;;11.10;99.90;;;;;;5099634;28;19908;-70
2022/04/29 07:56:22;;;;;;;;;;;11.30;99.90;;;;;;5083711;28;19923;-71
2022/04/29 07:58:48;;;;;;;;;;;11.30;99.90;;;;;;5088241;28;19912;-70
2022/04/29 08:01:13;;;;;;;;;;;11.30;99.90;;;;;;5091079;28;20262;-70
2022/04/29 08:03:39;;;;;;;;;;;11.60;99.90;;;;;;5100681;28;19908;-70
2022/04/29 08:06:05;;;;;;;;;;;11.80;99.90;;;;;;5082307;28;19904;-71
2022/04/29 08:08:31;;;;;;;;;;;11.90;99.90;;;;;;5089439;28;19919;-71
2022/04/29 08:10:57;;;;;;;;;;;11.80;99.90;;;;;;5081760;28;19964;-70
2022/04/29 08:13:24;;;;;;;;;;;11.70;99.90;;;;;;5100356;28;19932;-70
2022/04/29 08:15:49;;;;;;;;;;;11.80;99.90;;;;;;5095023;28;19923;-70
2022/04/29 08:18:15;;;;;;;;;;;11.80;99.90;;;;;;5083096;28;19913;-70
2022/04/29 08:20:41;;;;;;;;;;;11.60;99.90;;;;;;5115917;28;19983;-70
2022/04/29 08:23:07;;;;;;;;;;;11.70;99.90;;;;;;5088621;28;19912;-70
2022/04/29 08:25:33;;;;;;;;;;;11.60;99.90;;;;;;5082851;28;19920;-69
2022/04/29 08:28:00;;;;;;;;;;;11.50;99.90;;;;;;5088027;28;19916;-69
2022/04/29 08:30:30;;;;;;;;;;;11.70;99.90;;;;;;5097475;28;19908;-70
2022/04/29 08:32:56;;;;;;;;;;;11.80;99.90;;;;;;5085584;28;19909;-70
2022/04/29 08:35:22;;;;;;;;;;;11.70;99.90;;;;;;5099544;28;19970;-70
2022/04/29 08:37:47;;;;;;;;;;;11.50;99.90;;;;;;5090340;28;19908;-69
2022/04/29 08:40:13;;;;;;;;;;;11.50;99.90;;;;;;5085088;28;19934;-71
2022/04/29 08:42:40;;;;;;;;;;;11.40;99.90;;;;;;5090740;28;19911;-70
2022/04/29 08:45:08;;;;;;;;;;;11.50;99.90;;;;;;5095757;28;19934;-70
2022/04/29 08:47:38;;;;;;;;;;;11.60;99.90;;;;;;5087797;28;19908;-69
2022/04/29 08:50:08;;;;;;;;;;;11.80;99.90;;;;;;5099282;28;19950;-70
2022/04/29 08:52:35;;;;;;;;;;;11.90;99.90;;;;;;5095656;28;19912;-71
2022/04/29 09:00:31;;;;;;;;;;;12.10;99.90;;;;;;5087445;28;19915;-70
2022/04/29 09:02:58;;;;;;;;;;;12.00;99.90;;;;;;5090626;28;19912;-70
2022/04/29 09:05:23;;;;;;;;;;;12.20;99.90;;;;;;5090766;28;20415;-69
2022/04/29 09:08:02;;;;;;;;;;;12.40;99.90;;;;;;5076405;28;19912;-70
2022/04/29 09:10:29;;;;;;;;;;;12.60;99.90;;;;;;5082173;28;19954;-71
2022/04/29 09:12:55;;;;;;;;;;;12.80;99.90;;;;;;5082394;28;19981;-71
2022/04/29 09:15:21;;;;;;;;;;;13.20;99.90;;;;;;5081694;28;20361;-71
2022/04/29 09:17:50;;;;;;;;;;;13.50;99.90;;;;;;5084038;28;19961;-73
2022/04/29 09:20:22;;;;;;;;;;;13.80;99.90;;;;;;5084828;28;19912;-72
2022/04/29 09:22:50;;;;;;;;;;;13.70;99.90;;;;;;5094454;28;19908;-71
2022/04/29 09:25:17;;;;;;;;;;;13.60;99.90;;;;;;5083817;28;19908;-71
2022/04/29 09:27:52;;;;;;;;;;;13.60;99.90;;;;;;5080009;28;20277;-72
2022/04/29 09:30:19;;;;;;;;;;;13.70;99.90;;;;;;5092796;28;19912;-71
2022/04/29 09:32:50;;;;;;;;;;;13.60;99.90;;;;;;5085971;28;19909;-72
2022/04/29 09:35:16;;;;;;;;;;;13.80;99.90;;;;;;5081236;28;19912;-71
2022/04/29 09:39:26;;;;;;;;;;;13.80;99.90;;;;;;5086084;28;19981;-71
2022/04/29 09:40:39;;;;;;;;;;;13.70;99.90;;;;;;5093872;28;19950;-70
2022/04/29 09:43:05;;;;;;;;;;;14.00;99.90;;;;;;5087672;28;19908;-69
2022/04/29 09:45:32;;;;;;;;;;;14.10;99.90;;;;;;5092733;28;20476;-69
2022/04/29 09:48:01;;;;;;;;;;;13.80;99.90;;;;;;5089746;28;19908;-69
2022/04/29 09:50:48;;;;;;;;;;;13.80;99.90;;;;;;5089962;28;19916;-69
2022/04/29 09:53:18;;;;;;;;;;;13.80;99.90;;;;;;5085655;28;20381;-70
2022/04/29 09:56:03;;;;;;;;;;;14.00;99.90;;;;;;5088039;28;19919;-70
2022/04/29 09:58:29;;;;;;;;;;;13.80;99.90;;;;;;5098212;28;19922;-70
2022/04/29 10:00:55;;;;;;;;;;;13.90;99.90;;;;;;5089357;28;19927;-70
2022/04/29 10:03:21;;;;;;;;;;;14.10;99.90;;;;;;5101102;28;19908;-70
2022/04/29 10:05:48;;;;;;;;;;;14.00;99.90;;;;;;5096346;28;20003;-70
2022/04/29 10:08:18;;;;;;;;;;;14.30;99.90;;;;;;5104344;28;20045;-70
2022/04/29 10:10:45;;;;;;;;;;;14.80;99.90;;;;;;5097483;28;19913;-70
2022/04/29 10:13:11;;;;;;;;;;;14.50;99.90;;;;;;5103977;28;19915;-70
2022/04/29 10:15:37;;;;;;;;;;;14.30;99.90;;;;;;5114603;28;19916;-68
2022/04/29 10:23:34;;;;;;;;;;;14.00;99.90;;;;;;5100753;28;19915;-70
2022/04/29 10:26:01;;;;;;;;;;;14.00;99.90;;;;;;5099613;28;19908;-69
2022/04/29 10:28:27;;;;;;;;;;;14.10;99.90;;;;;;5096197;28;19920;-69
2022/04/29 10:30:59;;;;;;;;;;;14.10;99.90;;;;;;5095248;28;19914;-70
2022/04/29 10:33:24;;;;;;;;;;;14.10;99.90;;;;;;5090152;28;19926;-70
2022/04/29 10:35:56;;;;;;;;;;;14.20;99.90;;;;;;5102820;28;19916;-69
2022/04/29 10:38:31;;;;;;;;;;;14.40;97.10;;;;;;5101465;28;20002;-70
2022/04/29 10:41:24;;;;;;;;;;;14.50;96.30;;;;;;5086324;28;19920;-70
2022/04/29 10:43:50;;;;;;;;;;;14.40;96.30;;;;;;5093980;28;19930;-70
2022/04/29 10:46:15;;;;;;;;;;;14.40;96.20;;;;;;5096871;28;19919;-71
2022/04/29 10:48:42;;;;;;;;;;;14.60;96.10;;;;;;5105347;28;20381;-70
2022/04/29 10:51:11;;;;;;;;;;;14.50;95.00;;;;;;5099940;28;19919;-70
2022/04/29 10:53:43;;;;;;;;;;;14.50;96.90;;;;;;5097381;28;19907;-70
2022/04/29 10:56:26;;;;;;;;;;;14.50;97.30;;;;;;5097603;28;19942;-68
2022/04/29 10:59:13;;;;;;;;;;;14.70;96.60;;;;;;5101040;28;19983;-70
2022/04/29 11:01:39;;;;;;;;;;;14.60;96.10;;;;;;5099236;28;19908;-71
2022/04/29 11:04:06;;;;;;;;;;;14.60;96.70;;;;;;5104967;28;19927;-71
2022/04/29 11:06:36;;;;;;;;;;;14.50;96.70;;;;;;5092128;28;20019;-69
2022/04/29 11:09:02;;;;;;;;;;;14.40;96.20;;;;;;5099363;28;19909;-69
2022/04/29 11:11:43;;;;;;;;;;;14.50;96.30;;;;;;5090636;28;19967;-70
2022/04/29 11:14:10;;;;;;;;;;;14.60;96.00;;;;;;5098351;28;19995;-70
2022/04/29 11:16:49;;;;;;;;;;;14.80;95.20;;;;;;5065009;28;1138396;-71
2022/04/29 11:19:22;;;;;;;;;;;14.90;94.50;;;;;;5086909;28;19926;-71
2022/04/29 11:24:43;;;;;;;;;;;15.10;94.50;;;;;;5094738;28;19919;-70
2022/04/29 11:27:09;;;;;;;;;;;15.60;93.80;;;;;;5093633;28;19912;-70
2022/04/29 11:29:44;;;;;;;;;;;15.40;93.30;;;;;;5103023;28;19908;-69
2022/04/29 11:32:10;;;;;;;;;;;15.50;93.30;;;;;;5096835;28;19935;-69
2022/04/29 11:34:49;;;;;;;;;;;15.90;92.70;;;;;;5097751;28;19908;-68
2022/04/29 11:37:18;;;;;;;;;;;16.20;92.50;;;;;;5084958;28;19913;-69
2022/04/29 11:39:43;;;;;;;;;;;15.90;91.60;;;;;;5078709;28;19908;-68
2022/04/29 11:42:16;;;;;;;;;;;16.10;92.10;;;;;;5086184;28;19909;-70
2022/04/29 11:44:43;;;;;;;;;;;16.30;91.60;;;;;;5080396;28;20402;-70
2022/04/29 11:47:08;;;;;;;;;;;16.20;91.20;;;;;;5076318;28;19904;-68
2022/04/29 11:49:34;;;;;;;;;;;16.00;91.90;;;;;;5078078;28;19948;-69
2022/04/29 11:52:39;;;;;;;;;;;16.00;91.50;;;;;;5085222;28;20435;-69
2022/04/29 11:55:05;;;;;;;;;;;16.00;91.70;;;;;;5072266;28;19917;-68
2022/04/29 11:57:33;;;;;;;;;;;16.10;91.30;;;;;;5070236;28;20053;-69
2022/04/29 12:00:00;;;;;;;;;;;16.00;91.20;;;;;;5074917;28;19920;-69
2022/04/29 12:02:26;;;;;;;;;;;16.00;91.40;;;;;;5085914;28;19990;-67
2022/04/29 12:04:56;;;;;;;;;;;16.20;90.70;;;;;;5074342;28;19916;-69
2022/04/29 12:07:22;;;;;;;;;;;16.00;91.40;;;;;;5084380;28;19908;-69
2022/04/29 12:09:48;;;;;;;;;;;15.80;91.80;;;;;;5089397;28;20340;-69
2022/04/29 12:12:26;;;;;;;;;;;15.40;92.30;;;;;;5085060;28;19943;-69
2022/04/29 12:14:52;;;;;;;;;;;15.20;92.60;;;;;;5089168;28;20413;-69
2022/04/29 12:17:17;;;;;;;;;;;15.10;92.70;;;;;;5088234;28;19963;-69
2022/04/29 12:19:43;;;;;;;;;;;15.40;92.70;;;;;;5081974;28;20385;-70
2022/04/29 12:22:09;;;;;;;;;;;15.80;92.20;;;;;;5093487;28;19908;-71
2022/04/29 12:24:45;;;;;;;;;;;16.00;92.00;;;;;;5098119;28;19908;-69
2022/04/29 12:27:10;;;;;;;;;;;16.00;92.10;;;;;;5083854;28;19908;-70
2022/04/29 12:29:38;;;;;;;;;;;16.10;92.00;;;;;;5101982;28;19915;-69
2022/04/29 12:35:09;;;;;;;;;;;16.30;91.30;;;;;;5082822;28;19979;-70
2022/04/29 12:37:35;;;;;;;;;;;16.70;91.00;;;;;;5084505;28;19921;-70
2022/04/29 12:40:04;;;;;;;;;;;16.40;91.30;;;;;;5101303;28;19908;-70
2022/04/29 12:42:30;;;;;;;;;;;16.10;92.00;;;;;;5090850;28;19908;-70
2022/04/29 12:45:14;;;;;;;;;;;16.00;92.30;;;;;;5090709;28;20015;-69
2022/04/29 12:47:41;;;;;;;;;;;15.90;92.20;;;;;;5102314;28;19908;-69
2022/04/29 12:50:24;;;;;;;;;;;15.90;91.80;;;;;;5102509;28;19908;-70
2022/04/29 12:52:50;;;;;;;;;;;15.90;92.10;;;;;;5100259;28;19912;-69
2022/04/29 12:55:16;;;;;;;;;;;16.10;91.50;;;;;;5116480;28;19935;-70
2022/04/29 12:57:41;;;;;;;;;;;15.80;92.00;;;;;;5098005;28;19908;-70
2022/04/29 13:00:08;;;;;;;;;;;16.20;91.20;;;;;;5085294;28;19905;-70
2022/04/29 13:02:34;;;;;;;;;;;16.20;90.80;;;;;;5096386;28;20061;-70
2022/04/29 13:04:59;;;;;;;;;;;16.20;91.00;;;;;;5099813;28;19908;-69
2022/04/29 13:07:25;;;;;;;;;;;16.10;91.20;;;;;;5095971;28;19908;-70
2022/04/29 13:09:51;;;;;;;;;;;16.00;91.80;;;;;;5084402;28;19962;-69
2022/04/29 13:12:18;;;;;;;;;;;16.00;92.10;;;;;;5094950;28;20337;-70
2022/04/29 13:14:43;;;;;;;;;;;15.90;93.20;;;;;;5085680;28;19909;-70
2022/04/29 13:17:09;;;;;;;;;;;15.90;93.10;;;;;;5084496;28;20006;-69
2022/04/29 13:19:36;;;;;;;;;;;15.70;93.50;;;;;;5095714;28;19909;-70
2022/04/29 13:22:02;;;;;;;;;;;15.50;93.70;;;;;;5091209;28;19935;-69
2022/04/29 13:24:27;;;;;;;;;;;15.60;93.60;;;;;;5099921;28;20023;-70
2022/04/29 13:26:56;;;;;;;;;;;15.90;93.60;;;;;;5103774;28;20330;-69
2022/04/29 13:29:21;;;;;;;;;;;15.90;93.40;;;;;;5099295;28;19905;-70
2022/04/29 13:31:47;;;;;;;;;;;15.90;93.40;;;;;;5084606;28;19908;-70
2022/04/29 13:34:15;;;;;;;;;;;16.00;93.40;;;;;;5101907;28;19904;-70
2022/04/29 13:36:41;;;;;;;;;;;16.10;93.00;;;;;;5093635;28;19923;-69
2022/04/29 13:39:08;;;;;;;;;;;16.30;92.70;;;;;;5100848;28;19904;-69
2022/04/29 13:41:33;;;;;;;;;;;16.10;92.50;;;;;;5097059;28;20414;-70
2022/04/29 13:43:59;;;;;;;;;;;16.00;93.10;;;;;;5099756;28;19908;-70
2022/04/29 13:46:24;;;;;;;;;;;15.80;94.20;;;;;;5097638;28;20367;-71
2022/04/29 13:48:50;;;;;;;;;;;15.50;95.30;;;;;;5095552;28;19933;-70
2022/04/29 13:51:15;;;;;;;;;;;15.20;96.20;;;;;;5094957;28;19911;-69
2022/04/29 13:53:41;;;;;;;;;;;15.10;96.90;;;;;;5091575;28;19915;-69
2022/04/29 13:56:07;;;;;;;;;;;15.20;97.20;;;;;;5097290;28;19916;-69
2022/04/29 13:58:32;;;;;;;;;;;14.90;97.20;;;;;;5090591;28;19904;-69
2022/04/29 14:00:58;;;;;;;;;;;14.80;97.90;;;;;;5101333;28;20351;-69
2022/04/29 14:03:23;;;;;;;;;;;14.90;97.60;;;;;;5096256;28;19904;-69
2022/04/29 14:05:50;;;;;;;;;;;14.80;97.60;;;;;;5093401;28;19950;-69
2022/04/29 14:08:15;;;;;;;;;;;14.90;97.40;;;;;;5091123;28;19962;-68
2022/04/29 14:10:41;;;;;;;;;;;15.00;96.50;;;;;;5095474;28;20392;-68
2022/04/29 14:13:10;;;;;;;;;;;14.90;97.00;;;;;;5100626;28;20003;-69
2022/04/29 14:15:38;;;;;;;;;;;14.90;96.40;;;;;;5086746;28;20305;-69
2022/04/29 14:18:05;;;;;;;;;;;15.00;96.10;;;;;;5083520;28;20366;-68
2022/04/29 14:20:30;;;;;;;;;;;15.00;95.90;;;;;;5085033;28;20330;-69
2022/04/29 14:22:56;;;;;;;;;;;14.90;95.70;;;;;;5095166;28;19963;-68
2022/04/29 14:25:22;;;;;;;;;;;14.90;95.50;;;;;;5090589;28;19934;-69
2022/04/29 14:27:51;;;;;;;;;;;15.10;95.20;;;;;;5082165;28;19965;-69
2022/04/29 14:30:18;;;;;;;;;;;15.20;95.50;;;;;;5094181;28;19987;-69
2022/04/29 14:32:44;;;;;;;;;;;15.30;95.20;;;;;;5089696;28;19915;-69
2022/04/29 14:35:10;;;;;;;;;;;15.40;94.60;;;;;;5092976;28;19912;-68
2022/04/29 14:37:36;;;;;;;;;;;15.50;94.90;;;;;;5082866;28;19912;-68
2022/04/29 14:40:05;;;;;;;;;;;15.70;94.40;;;;;;5084880;28;19968;-69
2022/04/29 14:42:30;;;;;;;;;;;15.70;94.00;;;;;;5093726;28;19927;-69
2022/04/29 14:44:56;;;;;;;;;;;15.90;94.00;;;;;;5086705;28;19916;-69
2022/04/29 14:47:22;;;;;;;;;;;15.80;93.90;;;;;;5084200;28;19990;-69
2022/04/29 14:49:48;;;;;;;;;;;15.90;93.80;;;;;;5091962;28;19943;-69
2022/04/29 14:52:13;;;;;;;;;;;15.90;93.40;;;;;;5092248;28;19951;-68
2022/04/29 14:54:40;;;;;;;;;;;15.50;94.10;;;;;;5085118;28;19943;-69
2022/04/29 14:57:05;;;;;;;;;;;15.60;94.20;;;;;;5089542;28;19930;-69